sensor_id;sensor_type;location;lat;lon;timestamp;P1;durP1;ratioP1;P2;durP2;ratioP2
2462;SDS011;1243;54.298;10.172;2023-09-12T00:01:40;47.40;;;34.37;;
2462;SDS011;1243;54.298;10.172;2023-09-12T00:07:27;49.07;;;34.00;;
2462;SDS011;1243;54.298;10.172;2023-09-12T00:09:53;47.97;;;36.30;;
2462;SDS011;1243;54.298;10.172;2023-09-12T00:12:21;47.00;;;34.03;;
2462;SDS011;1243;54.298;10.172;2023-09-12T00:15:18;49.73;;;33.20;;
2462;SDS011;1243;54.298;10.172;2023-09-12T00:21:53;47.03;;;32.67;;
2462;SDS011;1243;54.298;10.172;2023-09-12T00:30:52;49.00;;;33.90;;
2462;SDS011;1243;54.298;10.172;2023-09-12T00:53:08;46.33;;;30.30;;
2462;SDS011;1243;54.298;10.172;2023-09-12T00:55:54;47.87;;;31.67;;
2462;SDS011;1243;54.298;10.172;2023-09-12T00:58:23;47.27;;;31.33;;
2462;SDS011;1243;54.298;10.172;2023-09-12T01:00:50;43.73;;;30.80;;
2462;SDS011;1243;54.298;10.172;2023-09-12T01:06:58;46.47;;;32.40;;
2462;SDS011;1243;54.298;10.172;2023-09-12T01:09:26;43.07;;;31.67;;
2462;SDS011;1243;54.298;10.172;2023-09-12T01:12:27;40.43;;;30.30;;
2462;SDS011;1243;54.298;10.172;2023-09-12T01:14:54;46.63;;;30.10;;
2462;SDS011;1243;54.298;10.172;2023-09-12T01:37:15;39.87;;;28.47;;
2462;SDS011;1243;54.298;10.172;2023-09-12T01:39:42;44.97;;;27.80;;
2462;SDS011;1243;54.298;10.172;2023-09-12T01:55:09;37.63;;;24.83;;
2462;SDS011;1243;54.298;10.172;2023-09-12T02:18:42;39.43;;;24.07;;
2462;SDS011;1243;54.298;10.172;2023-09-12T02:28:10;42.73;;;23.53;;
2462;SDS011;1243;54.298;10.172;2023-09-12T02:37:47;35.57;;;22.97;;
2462;SDS011;1243;54.298;10.172;2023-09-12T02:43:02;34.10;;;23.30;;
2462;SDS011;1243;54.298;10.172;2023-09-12T02:46:06;34.57;;;23.03;;
2462;SDS011;1243;54.298;10.172;2023-09-12T02:49:15;47.03;;;24.03;;
2462;SDS011;1243;54.298;10.172;2023-09-12T02:52:30;34.97;;;24.53;;
2462;SDS011;1243;54.298;10.172;2023-09-12T02:54:56;34.93;;;23.07;;
2462;SDS011;1243;54.298;10.172;2023-09-12T02:57:29;32.70;;;21.57;;
2462;SDS011;1243;54.298;10.172;2023-09-12T03:03:38;31.63;;;21.00;;
2462;SDS011;1243;54.298;10.172;2023-09-12T03:06:20;38.90;;;22.93;;
2462;SDS011;1243;54.298;10.172;2023-09-12T03:08:46;32.90;;;20.93;;
2462;SDS011;1243;54.298;10.172;2023-09-12T03:11:13;32.23;;;20.07;;
2462;SDS011;1243;54.298;10.172;2023-09-12T03:16:57;25.30;;;19.53;;
2462;SDS011;1243;54.298;10.172;2023-09-12T03:19:23;23.20;;;18.93;;
2462;SDS011;1243;54.298;10.172;2023-09-12T03:21:49;28.37;;;20.30;;
2462;SDS011;1243;54.298;10.172;2023-09-12T03:24:15;28.03;;;19.80;;
2462;SDS011;1243;54.298;10.172;2023-09-12T03:29:36;25.33;;;19.07;;
2462;SDS011;1243;54.298;10.172;2023-09-12T03:32:17;26.70;;;18.83;;
2462;SDS011;1243;54.298;10.172;2023-09-12T03:38:12;30.37;;;18.90;;
2462;SDS011;1243;54.298;10.172;2023-09-12T03:43:42;29.53;;;19.73;;
2462;SDS011;1243;54.298;10.172;2023-09-12T03:46:19;30.60;;;20.83;;
2462;SDS011;1243;54.298;10.172;2023-09-12T03:55:38;33.43;;;20.97;;
2462;SDS011;1243;54.298;10.172;2023-09-12T04:08:53;33.77;;;22.60;;
2462;SDS011;1243;54.298;10.172;2023-09-12T04:14:50;34.37;;;22.77;;
2462;SDS011;1243;54.298;10.172;2023-09-12T04:17:19;36.07;;;22.57;;
2462;SDS011;1243;54.298;10.172;2023-09-12T04:22:54;35.23;;;23.50;;
2462;SDS011;1243;54.298;10.172;2023-09-12T04:25:20;41.17;;;25.10;;
2462;SDS011;1243;54.298;10.172;2023-09-12T04:31:21;38.13;;;25.00;;
2462;SDS011;1243;54.298;10.172;2023-09-12T04:33:47;34.87;;;22.77;;
2462;SDS011;1243;54.298;10.172;2023-09-12T04:36:18;34.70;;;24.07;;
2462;SDS011;1243;54.298;10.172;2023-09-12T04:38:46;36.73;;;23.47;;
2462;SDS011;1243;54.298;10.172;2023-09-12T05:01:10;46.07;;;26.57;;
2462;SDS011;1243;54.298;10.172;2023-09-12T05:30:53;59.03;;;30.67;;
2462;SDS011;1243;54.298;10.172;2023-09-12T05:43:22;51.87;;;29.73;;
2462;SDS011;1243;54.298;10.172;2023-09-12T05:56:19;49.07;;;30.20;;
2462;SDS011;1243;54.298;10.172;2023-09-12T05:59:18;50.13;;;30.30;;
2462;SDS011;1243;54.298;10.172;2023-09-12T06:01:48;45.33;;;28.77;;
2462;SDS011;1243;54.298;10.172;2023-09-12T06:04:14;45.33;;;29.90;;
2462;SDS011;1243;54.298;10.172;2023-09-12T06:06:40;46.73;;;29.20;;
2462;SDS011;1243;54.298;10.172;2023-09-12T06:09:06;48.80;;;31.10;;
2462;SDS011;1243;54.298;10.172;2023-09-12T06:11:53;42.13;;;29.73;;
2462;SDS011;1243;54.298;10.172;2023-09-12T06:14:22;48.60;;;30.60;;
2462;SDS011;1243;54.298;10.172;2023-09-12T06:27:08;43.20;;;28.53;;
2462;SDS011;1243;54.298;10.172;2023-09-12T06:39:13;50.93;;;30.13;;
2462;SDS011;1243;54.298;10.172;2023-09-12T06:41:39;41.37;;;29.07;;
2462;SDS011;1243;54.298;10.172;2023-09-12T06:44:07;47.90;;;28.90;;
2462;SDS011;1243;54.298;10.172;2023-09-12T06:47:23;42.50;;;29.47;;
2462;SDS011;1243;54.298;10.172;2023-09-12T06:49:52;50.40;;;30.67;;
2462;SDS011;1243;54.298;10.172;2023-09-12T07:11:12;40.20;;;28.03;;
2462;SDS011;1243;54.298;10.172;2023-09-12T07:24:15;41.40;;;27.43;;
2462;SDS011;1243;54.298;10.172;2023-09-12T07:27:26;44.53;;;26.70;;
2462;SDS011;1243;54.298;10.172;2023-09-12T07:35:51;41.03;;;26.47;;
2462;SDS011;1243;54.298;10.172;2023-09-12T07:48:27;42.50;;;26.80;;
2462;SDS011;1243;54.298;10.172;2023-09-12T07:51:14;38.20;;;24.73;;
2462;SDS011;1243;54.298;10.172;2023-09-12T07:54:05;40.93;;;27.00;;
2462;SDS011;1243;54.298;10.172;2023-09-12T07:57:36;35.13;;;23.30;;
2462;SDS011;1243;54.298;10.172;2023-09-12T08:06:47;37.13;;;22.90;;
2462;SDS011;1243;54.298;10.172;2023-09-12T08:09:13;36.17;;;24.10;;
2462;SDS011;1243;54.298;10.172;2023-09-12T08:11:49;36.30;;;25.17;;
2462;SDS011;1243;54.298;10.172;2023-09-12T08:14:15;34.80;;;24.63;;
2462;SDS011;1243;54.298;10.172;2023-09-12T08:20:07;33.57;;;23.57;;
2462;SDS011;1243;54.298;10.172;2023-09-12T08:22:49;32.03;;;22.77;;
2462;SDS011;1243;54.298;10.172;2023-09-12T08:32:29;28.83;;;20.90;;
2462;SDS011;1243;54.298;10.172;2023-09-12T08:34:55;30.03;;;20.20;;
2462;SDS011;1243;54.298;10.172;2023-09-12T08:37:31;29.93;;;19.60;;
2462;SDS011;1243;54.298;10.172;2023-09-12T08:39:57;21.60;;;16.70;;
2462;SDS011;1243;54.298;10.172;2023-09-12T08:42:26;22.30;;;17.90;;
2462;SDS011;1243;54.298;10.172;2023-09-12T08:44:55;22.97;;;16.27;;
2462;SDS011;1243;54.298;10.172;2023-09-12T08:47:22;28.07;;;17.97;;
2462;SDS011;1243;54.298;10.172;2023-09-12T08:50:20;24.43;;;18.30;;
2462;SDS011;1243;54.298;10.172;2023-09-12T08:52:50;25.73;;;16.30;;
2462;SDS011;1243;54.298;10.172;2023-09-12T08:55:16;22.77;;;18.57;;
2462;SDS011;1243;54.298;10.172;2023-09-12T08:57:42;24.53;;;18.53;;
2462;SDS011;1243;54.298;10.172;2023-09-12T09:00:38;18.50;;;16.40;;
2462;SDS011;1243;54.298;10.172;2023-09-12T09:03:18;26.60;;;17.50;;
2462;SDS011;1243;54.298;10.172;2023-09-12T09:06:05;21.93;;;17.90;;
2462;SDS011;1243;54.298;10.172;2023-09-12T09:08:33;21.03;;;16.00;;
2462;SDS011;1243;54.298;10.172;2023-09-12T09:11:10;19.60;;;17.00;;
2462;SDS011;1243;54.298;10.172;2023-09-12T09:13:43;20.63;;;17.07;;
2462;SDS011;1243;54.298;10.172;2023-09-12T09:16:13;30.83;;;18.87;;
2462;SDS011;1243;54.298;10.172;2023-09-12T09:18:57;21.33;;;19.20;;
2462;SDS011;1243;54.298;10.172;2023-09-12T09:21:35;22.83;;;19.33;;
2462;SDS011;1243;54.298;10.172;2023-09-12T09:24:08;22.63;;;18.03;;
2462;SDS011;1243;54.298;10.172;2023-09-12T09:29:32;19.40;;;15.50;;
2462;SDS011;1243;54.298;10.172;2023-09-12T09:32:16;18.80;;;15.00;;
2462;SDS011;1243;54.298;10.172;2023-09-12T09:37:53;18.07;;;14.17;;
2462;SDS011;1243;54.298;10.172;2023-09-12T09:40:19;15.50;;;12.10;;
2462;SDS011;1243;54.298;10.172;2023-09-12T09:42:52;14.30;;;12.27;;
2462;SDS011;1243;54.298;10.172;2023-09-12T09:45:23;14.03;;;11.10;;
2462;SDS011;1243;54.298;10.172;2023-09-12T09:47:49;16.23;;;10.90;;
2462;SDS011;1243;54.298;10.172;2023-09-12T09:50:16;12.90;;;11.60;;
2462;SDS011;1243;54.298;10.172;2023-09-12T09:52:53;12.63;;;11.07;;
2462;SDS011;1243;54.298;10.172;2023-09-12T09:55:26;11.57;;;10.47;;
2462;SDS011;1243;54.298;10.172;2023-09-12T09:58:20;11.43;;;9.20;;
2462;SDS011;1243;54.298;10.172;2023-09-12T10:00:49;9.47;;;8.57;;
2462;SDS011;1243;54.298;10.172;2023-09-12T10:03:25;13.20;;;9.60;;
2462;SDS011;1243;54.298;10.172;2023-09-12T10:09:31;12.03;;;10.27;;
2462;SDS011;1243;54.298;10.172;2023-09-12T10:12:14;10.67;;;9.67;;
2462;SDS011;1243;54.298;10.172;2023-09-12T10:14:40;11.03;;;10.00;;
2462;SDS011;1243;54.298;10.172;2023-09-12T10:17:08;10.33;;;8.70;;
2462;SDS011;1243;54.298;10.172;2023-09-12T10:19:48;10.60;;;9.50;;
2462;SDS011;1243;54.298;10.172;2023-09-12T10:22:33;11.97;;;10.40;;
2462;SDS011;1243;54.298;10.172;2023-09-12T10:25:10;10.20;;;8.73;;
2462;SDS011;1243;54.298;10.172;2023-09-12T10:27:37;12.43;;;9.67;;
2462;SDS011;1243;54.298;10.172;2023-09-12T10:30:03;14.07;;;10.30;;
2462;SDS011;1243;54.298;10.172;2023-09-12T10:32:30;10.83;;;9.77;;
2462;SDS011;1243;54.298;10.172;2023-09-12T10:34:58;12.40;;;9.63;;
2462;SDS011;1243;54.298;10.172;2023-09-12T10:37:25;14.90;;;8.70;;
2462;SDS011;1243;54.298;10.172;2023-09-12T10:39:54;10.80;;;8.30;;
2462;SDS011;1243;54.298;10.172;2023-09-12T10:42:41;15.87;;;11.20;;
2462;SDS011;1243;54.298;10.172;2023-09-12T10:45:09;8.43;;;7.47;;
2462;SDS011;1243;54.298;10.172;2023-09-12T10:47:35;9.53;;;7.90;;
2462;SDS011;1243;54.298;10.172;2023-09-12T10:50:02;9.53;;;7.53;;
2462;SDS011;1243;54.298;10.172;2023-09-12T10:52:28;9.53;;;8.50;;
2462;SDS011;1243;54.298;10.172;2023-09-12T10:54:55;11.50;;;8.30;;
2462;SDS011;1243;54.298;10.172;2023-09-12T10:57:24;9.73;;;8.70;;
2462;SDS011;1243;54.298;10.172;2023-09-12T11:00:30;8.50;;;7.57;;
2462;SDS011;1243;54.298;10.172;2023-09-12T11:05:53;7.17;;;6.50;;
2462;SDS011;1243;54.298;10.172;2023-09-12T11:08:20;6.67;;;6.00;;
2462;SDS011;1243;54.298;10.172;2023-09-12T11:14:03;6.93;;;6.30;;
2462;SDS011;1243;54.298;10.172;2023-09-12T11:16:29;8.13;;;6.53;;
2462;SDS011;1243;54.298;10.172;2023-09-12T11:25:03;8.80;;;7.50;;
2462;SDS011;1243;54.298;10.172;2023-09-12T11:27:43;6.33;;;5.73;;
2462;SDS011;1243;54.298;10.172;2023-09-12T11:30:11;12.43;;;7.80;;
2462;SDS011;1243;54.298;10.172;2023-09-12T11:32:40;6.93;;;6.30;;
2462;SDS011;1243;54.298;10.172;2023-09-12T11:35:10;7.83;;;6.90;;
2462;SDS011;1243;54.298;10.172;2023-09-12T11:37:36;6.77;;;6.17;;
2462;SDS011;1243;54.298;10.172;2023-09-12T11:42:40;8.40;;;7.43;;
2462;SDS011;1243;54.298;10.172;2023-09-12T11:45:09;12.83;;;8.23;;
2462;SDS011;1243;54.298;10.172;2023-09-12T11:47:41;9.87;;;7.87;;
2462;SDS011;1243;54.298;10.172;2023-09-12T11:50:08;12.93;;;8.97;;
2462;SDS011;1243;54.298;10.172;2023-09-12T11:53:11;11.40;;;8.47;;
2462;SDS011;1243;54.298;10.172;2023-09-12T11:55:41;11.40;;;8.37;;
2462;SDS011;1243;54.298;10.172;2023-09-12T11:58:15;14.47;;;9.53;;
2462;SDS011;1243;54.298;10.172;2023-09-12T12:00:44;12.80;;;9.97;;
2462;SDS011;1243;54.298;10.172;2023-09-12T12:03:13;12.07;;;10.87;;
2462;SDS011;1243;54.298;10.172;2023-09-12T12:05:42;13.10;;;11.20;;
2462;SDS011;1243;54.298;10.172;2023-09-12T12:08:09;13.63;;;10.33;;
2462;SDS011;1243;54.298;10.172;2023-09-12T12:10:36;13.70;;;12.23;;
2462;SDS011;1243;54.298;10.172;2023-09-12T12:13:04;14.73;;;11.43;;
2462;SDS011;1243;54.298;10.172;2023-09-12T12:15:30;11.70;;;10.17;;
2462;SDS011;1243;54.298;10.172;2023-09-12T12:17:56;23.47;;;11.27;;
2462;SDS011;1243;54.298;10.172;2023-09-12T12:20:22;15.20;;;11.90;;
2462;SDS011;1243;54.298;10.172;2023-09-12T12:22:48;14.20;;;11.37;;
2462;SDS011;1243;54.298;10.172;2023-09-12T12:25:16;13.67;;;12.23;;
2462;SDS011;1243;54.298;10.172;2023-09-12T12:27:43;11.73;;;10.10;;
2462;SDS011;1243;54.298;10.172;2023-09-12T12:30:10;15.07;;;12.40;;
2462;SDS011;1243;54.298;10.172;2023-09-12T12:32:40;13.57;;;11.80;;
2462;SDS011;1243;54.298;10.172;2023-09-12T12:35:19;11.40;;;10.30;;
2462;SDS011;1243;54.298;10.172;2023-09-12T12:37:47;18.03;;;11.83;;
2462;SDS011;1243;54.298;10.172;2023-09-12T12:40:14;16.67;;;12.70;;
2462;SDS011;1243;54.298;10.172;2023-09-12T12:42:41;14.67;;;12.90;;
2462;SDS011;1243;54.298;10.172;2023-09-12T12:45:13;19.00;;;14.20;;
2462;SDS011;1243;54.298;10.172;2023-09-12T12:47:40;15.80;;;13.10;;
2462;SDS011;1243;54.298;10.172;2023-09-12T12:50:12;14.63;;;12.27;;
2462;SDS011;1243;54.298;10.172;2023-09-12T12:52:48;14.43;;;12.73;;
2462;SDS011;1243;54.298;10.172;2023-09-12T12:55:14;14.97;;;12.63;;
2462;SDS011;1243;54.298;10.172;2023-09-12T12:57:42;12.73;;;10.63;;
2462;SDS011;1243;54.298;10.172;2023-09-12T13:00:10;15.70;;;13.47;;
2462;SDS011;1243;54.298;10.172;2023-09-12T13:02:37;16.83;;;12.23;;
2462;SDS011;1243;54.298;10.172;2023-09-12T13:05:03;14.63;;;12.83;;
2462;SDS011;1243;54.298;10.172;2023-09-12T13:07:45;18.60;;;12.00;;
2462;SDS011;1243;54.298;10.172;2023-09-12T13:10:11;13.80;;;12.40;;
2462;SDS011;1243;54.298;10.172;2023-09-12T13:12:37;14.83;;;12.77;;
2462;SDS011;1243;54.298;10.172;2023-09-12T13:15:04;14.00;;;12.47;;
2462;SDS011;1243;54.298;10.172;2023-09-12T13:17:30;19.43;;;11.87;;
2462;SDS011;1243;54.298;10.172;2023-09-12T13:19:59;15.30;;;12.10;;
2462;SDS011;1243;54.298;10.172;2023-09-12T13:22:27;19.80;;;11.70;;
2462;SDS011;1243;54.298;10.172;2023-09-12T13:24:53;12.33;;;9.50;;
2462;SDS011;1243;54.298;10.172;2023-09-12T13:27:19;10.57;;;9.60;;
2462;SDS011;1243;54.298;10.172;2023-09-12T13:29:45;11.67;;;10.47;;
2462;SDS011;1243;54.298;10.172;2023-09-12T13:32:13;11.40;;;8.70;;
2462;SDS011;1243;54.298;10.172;2023-09-12T13:34:40;14.03;;;10.37;;
2462;SDS011;1243;54.298;10.172;2023-09-12T13:37:06;11.53;;;9.80;;
2462;SDS011;1243;54.298;10.172;2023-09-12T13:39:32;16.40;;;10.40;;
2462;SDS011;1243;54.298;10.172;2023-09-12T13:41:57;12.30;;;10.40;;
2462;SDS011;1243;54.298;10.172;2023-09-12T13:44:26;10.70;;;9.23;;
2462;SDS011;1243;54.298;10.172;2023-09-12T13:46:53;12.30;;;10.83;;
2462;SDS011;1243;54.298;10.172;2023-09-12T13:49:18;12.67;;;10.80;;
2462;SDS011;1243;54.298;10.172;2023-09-12T13:51:44;13.23;;;11.83;;
2462;SDS011;1243;54.298;10.172;2023-09-12T13:54:10;13.60;;;9.23;;
2462;SDS011;1243;54.298;10.172;2023-09-12T13:56:43;10.67;;;9.60;;
2462;SDS011;1243;54.298;10.172;2023-09-12T13:59:09;13.30;;;8.33;;
2462;SDS011;1243;54.298;10.172;2023-09-12T14:01:36;12.80;;;9.57;;
2462;SDS011;1243;54.298;10.172;2023-09-12T14:04:02;8.53;;;7.73;;
2462;SDS011;1243;54.298;10.172;2023-09-12T14:06:28;10.00;;;9.07;;
2462;SDS011;1243;54.298;10.172;2023-09-12T14:08:54;9.67;;;8.67;;
2462;SDS011;1243;54.298;10.172;2023-09-12T14:11:20;10.23;;;9.27;;
2462;SDS011;1243;54.298;10.172;2023-09-12T14:13:46;10.30;;;8.13;;
2462;SDS011;1243;54.298;10.172;2023-09-12T14:16:12;9.13;;;8.23;;
2462;SDS011;1243;54.298;10.172;2023-09-12T14:18:38;14.27;;;12.70;;
2462;SDS011;1243;54.298;10.172;2023-09-12T14:21:04;11.83;;;10.73;;
2462;SDS011;1243;54.298;10.172;2023-09-12T14:23:29;10.90;;;9.80;;
2462;SDS011;1243;54.298;10.172;2023-09-12T14:25:55;10.97;;;9.57;;
2462;SDS011;1243;54.298;10.172;2023-09-12T14:28:21;12.93;;;11.47;;
2462;SDS011;1243;54.298;10.172;2023-09-12T14:30:47;10.97;;;9.77;;
2462;SDS011;1243;54.298;10.172;2023-09-12T14:33:14;13.50;;;10.73;;
2462;SDS011;1243;54.298;10.172;2023-09-12T14:35:40;11.70;;;8.37;;
2462;SDS011;1243;54.298;10.172;2023-09-12T14:38:06;10.00;;;8.87;;
2462;SDS011;1243;54.298;10.172;2023-09-12T14:40:32;9.83;;;8.87;;
2462;SDS011;1243;54.298;10.172;2023-09-12T14:42:59;8.33;;;7.53;;
2462;SDS011;1243;54.298;10.172;2023-09-12T14:45:26;10.13;;;9.17;;
2462;SDS011;1243;54.298;10.172;2023-09-12T14:47:53;9.77;;;8.73;;
2462;SDS011;1243;54.298;10.172;2023-09-12T14:50:21;10.40;;;9.40;;
2462;SDS011;1243;54.298;10.172;2023-09-12T14:52:51;9.67;;;8.60;;
2462;SDS011;1243;54.298;10.172;2023-09-12T14:55:17;11.50;;;9.67;;
2462;SDS011;1243;54.298;10.172;2023-09-12T14:57:43;9.80;;;8.23;;
2462;SDS011;1243;54.298;10.172;2023-09-12T15:00:09;9.43;;;7.10;;
2462;SDS011;1243;54.298;10.172;2023-09-12T15:02:36;10.73;;;7.53;;
2462;SDS011;1243;54.298;10.172;2023-09-12T15:05:02;6.60;;;6.00;;
2462;SDS011;1243;54.298;10.172;2023-09-12T15:07:31;9.80;;;7.90;;
2462;SDS011;1243;54.298;10.172;2023-09-12T15:09:58;8.70;;;7.90;;
2462;SDS011;1243;54.298;10.172;2023-09-12T15:12:24;8.53;;;7.70;;
2462;SDS011;1243;54.298;10.172;2023-09-12T15:14:50;8.97;;;8.07;;
2462;SDS011;1243;54.298;10.172;2023-09-12T15:17:19;12.00;;;7.63;;
2462;SDS011;1243;54.298;10.172;2023-09-12T15:19:45;10.00;;;8.10;;
2462;SDS011;1243;54.298;10.172;2023-09-12T15:22:11;11.30;;;9.40;;
2462;SDS011;1243;54.298;10.172;2023-09-12T15:24:41;9.13;;;7.50;;
2462;SDS011;1243;54.298;10.172;2023-09-12T15:27:07;11.70;;;8.43;;
2462;SDS011;1243;54.298;10.172;2023-09-12T15:29:33;7.93;;;7.13;;
2462;SDS011;1243;54.298;10.172;2023-09-12T15:31:59;11.73;;;8.00;;
2462;SDS011;1243;54.298;10.172;2023-09-12T15:34:28;9.43;;;8.53;;
2462;SDS011;1243;54.298;10.172;2023-09-12T15:37:09;9.10;;;8.20;;
2462;SDS011;1243;54.298;10.172;2023-09-12T15:39:37;12.13;;;10.80;;
2462;SDS011;1243;54.298;10.172;2023-09-12T15:42:03;11.00;;;10.03;;
2462;SDS011;1243;54.298;10.172;2023-09-12T15:44:29;10.07;;;9.17;;
2462;SDS011;1243;54.298;10.172;2023-09-12T15:46:55;10.00;;;8.97;;
2462;SDS011;1243;54.298;10.172;2023-09-12T15:49:24;8.23;;;7.53;;
2462;SDS011;1243;54.298;10.172;2023-09-12T15:51:50;8.73;;;7.87;;
2462;SDS011;1243;54.298;10.172;2023-09-12T15:54:16;9.90;;;8.90;;
2462;SDS011;1243;54.298;10.172;2023-09-12T15:56:42;10.33;;;7.53;;
2462;SDS011;1243;54.298;10.172;2023-09-12T15:59:08;9.70;;;8.80;;
2462;SDS011;1243;54.298;10.172;2023-09-12T16:01:34;9.70;;;8.70;;
2462;SDS011;1243;54.298;10.172;2023-09-12T16:04:00;8.67;;;7.77;;
2462;SDS011;1243;54.298;10.172;2023-09-12T16:06:26;8.20;;;7.00;;
2462;SDS011;1243;54.298;10.172;2023-09-12T16:09:01;8.00;;;7.20;;
2462;SDS011;1243;54.298;10.172;2023-09-12T16:11:27;9.50;;;8.57;;
2462;SDS011;1243;54.298;10.172;2023-09-12T16:13:53;12.60;;;9.33;;
2462;SDS011;1243;54.298;10.172;2023-09-12T16:16:20;12.83;;;9.10;;
2462;SDS011;1243;54.298;10.172;2023-09-12T16:18:46;10.60;;;9.03;;
2462;SDS011;1243;54.298;10.172;2023-09-12T16:21:27;11.30;;;9.87;;
2462;SDS011;1243;54.298;10.172;2023-09-12T16:24:14;9.83;;;8.83;;
2462;SDS011;1243;54.298;10.172;2023-09-12T16:26:48;10.47;;;8.90;;
2462;SDS011;1243;54.298;10.172;2023-09-12T16:29:14;8.70;;;7.80;;
2462;SDS011;1243;54.298;10.172;2023-09-12T16:31:40;7.43;;;6.73;;
2462;SDS011;1243;54.298;10.172;2023-09-12T16:34:05;9.63;;;8.83;;
2462;SDS011;1243;54.298;10.172;2023-09-12T16:36:40;8.60;;;7.57;;
2462;SDS011;1243;54.298;10.172;2023-09-12T16:39:06;9.87;;;8.97;;
2462;SDS011;1243;54.298;10.172;2023-09-12T16:41:44;8.00;;;7.30;;
2462;SDS011;1243;54.298;10.172;2023-09-12T16:44:10;11.03;;;8.67;;
2462;SDS011;1243;54.298;10.172;2023-09-12T16:47:21;9.07;;;8.17;;
2462;SDS011;1243;54.298;10.172;2023-09-12T16:49:34;9.73;;;8.80;;
2462;SDS011;1243;54.298;10.172;2023-09-12T16:52:04;13.53;;;9.60;;
2462;SDS011;1243;54.298;10.172;2023-09-12T16:54:34;10.67;;;8.10;;
2462;SDS011;1243;54.298;10.172;2023-09-12T16:57:39;8.90;;;7.90;;
2462;SDS011;1243;54.298;10.172;2023-09-12T17:00:05;11.60;;;8.50;;
2462;SDS011;1243;54.298;10.172;2023-09-12T17:02:36;7.70;;;7.10;;
2462;SDS011;1243;54.298;10.172;2023-09-12T17:05:03;10.83;;;8.33;;
2462;SDS011;1243;54.298;10.172;2023-09-12T17:07:30;13.03;;;8.60;;
2462;SDS011;1243;54.298;10.172;2023-09-12T17:09:56;12.23;;;11.03;;
2462;SDS011;1243;54.298;10.172;2023-09-12T17:12:55;15.80;;;10.90;;
2462;SDS011;1243;54.298;10.172;2023-09-12T17:15:21;10.53;;;9.03;;
2462;SDS011;1243;54.298;10.172;2023-09-12T17:17:50;12.33;;;9.73;;
2462;SDS011;1243;54.298;10.172;2023-09-12T17:20:16;11.47;;;10.33;;
2462;SDS011;1243;54.298;10.172;2023-09-12T17:22:54;8.80;;;8.10;;
2462;SDS011;1243;54.298;10.172;2023-09-12T17:25:30;9.20;;;8.37;;
2462;SDS011;1243;54.298;10.172;2023-09-12T17:27:56;9.13;;;8.23;;
2462;SDS011;1243;54.298;10.172;2023-09-12T17:30:22;10.53;;;9.43;;
2462;SDS011;1243;54.298;10.172;2023-09-12T17:32:48;10.60;;;9.30;;
2462;SDS011;1243;54.298;10.172;2023-09-12T17:35:15;10.07;;;9.10;;
2462;SDS011;1243;54.298;10.172;2023-09-12T17:37:41;13.80;;;10.50;;
2462;SDS011;1243;54.298;10.172;2023-09-12T17:40:07;18.40;;;13.00;;
2462;SDS011;1243;54.298;10.172;2023-09-12T17:42:33;8.90;;;8.00;;
2462;SDS011;1243;54.298;10.172;2023-09-12T17:44:59;10.37;;;8.50;;
2462;SDS011;1243;54.298;10.172;2023-09-12T17:47:29;10.00;;;9.10;;
2462;SDS011;1243;54.298;10.172;2023-09-12T17:49:55;11.17;;;9.87;;
2462;SDS011;1243;54.298;10.172;2023-09-12T17:59:26;10.90;;;9.63;;
2462;SDS011;1243;54.298;10.172;2023-09-12T18:02:17;10.53;;;9.53;;
2462;SDS011;1243;54.298;10.172;2023-09-12T18:08:52;9.80;;;8.70;;
2462;SDS011;1243;54.298;10.172;2023-09-12T18:11:34;11.07;;;9.93;;
2462;SDS011;1243;54.298;10.172;2023-09-12T18:14:12;11.77;;;10.37;;
2462;SDS011;1243;54.298;10.172;2023-09-12T18:16:38;12.07;;;10.87;;
2462;SDS011;1243;54.298;10.172;2023-09-12T18:19:37;13.83;;;10.63;;
2462;SDS011;1243;54.298;10.172;2023-09-12T18:25:46;12.17;;;9.60;;
2462;SDS011;1243;54.298;10.172;2023-09-12T18:31:30;10.37;;;9.37;;
2462;SDS011;1243;54.298;10.172;2023-09-12T18:34:18;12.50;;;10.43;;
2462;SDS011;1243;54.298;10.172;2023-09-12T18:36:49;12.13;;;10.93;;
2462;SDS011;1243;54.298;10.172;2023-09-12T18:39:15;14.47;;;11.47;;
2462;SDS011;1243;54.298;10.172;2023-09-12T18:41:43;11.30;;;10.20;;
2462;SDS011;1243;54.298;10.172;2023-09-12T18:44:17;12.50;;;10.40;;
2462;SDS011;1243;54.298;10.172;2023-09-12T18:56:51;12.17;;;10.97;;
2462;SDS011;1243;54.298;10.172;2023-09-12T19:06:50;11.57;;;10.57;;
2462;SDS011;1243;54.298;10.172;2023-09-12T19:09:02;11.00;;;9.87;;
2462;SDS011;1243;54.298;10.172;2023-09-12T19:15:37;12.37;;;10.93;;
2462;SDS011;1243;54.298;10.172;2023-09-12T19:21:08;10.60;;;9.60;;
2462;SDS011;1243;54.298;10.172;2023-09-12T19:23:40;12.23;;;11.03;;
2462;SDS011;1243;54.298;10.172;2023-09-12T19:26:33;11.47;;;10.10;;
2462;SDS011;1243;54.298;10.172;2023-09-12T19:29:13;13.57;;;10.37;;
2462;SDS011;1243;54.298;10.172;2023-09-12T19:32:00;10.87;;;9.77;;
2462;SDS011;1243;54.298;10.172;2023-09-12T19:34:26;11.77;;;10.13;;
2462;SDS011;1243;54.298;10.172;2023-09-12T19:36:52;13.10;;;10.20;;
2462;SDS011;1243;54.298;10.172;2023-09-12T19:39:18;12.57;;;10.00;;
2462;SDS011;1243;54.298;10.172;2023-09-12T19:41:44;12.50;;;10.40;;
2462;SDS011;1243;54.298;10.172;2023-09-12T19:44:11;13.40;;;10.47;;
2462;SDS011;1243;54.298;10.172;2023-09-12T19:47:03;13.50;;;10.87;;
2462;SDS011;1243;54.298;10.172;2023-09-12T19:49:32;14.40;;;10.50;;
2462;SDS011;1243;54.298;10.172;2023-09-12T19:52:30;10.73;;;9.10;;
2462;SDS011;1243;54.298;10.172;2023-09-12T19:54:59;12.80;;;9.07;;
2462;SDS011;1243;54.298;10.172;2023-09-12T19:57:42;11.57;;;9.57;;
2462;SDS011;1243;54.298;10.172;2023-09-12T20:06:20;12.50;;;11.20;;
2462;SDS011;1243;54.298;10.172;2023-09-12T20:08:58;11.40;;;10.30;;
2462;SDS011;1243;54.298;10.172;2023-09-12T20:11:42;14.83;;;10.57;;
2462;SDS011;1243;54.298;10.172;2023-09-12T20:14:11;11.20;;;10.20;;
2462;SDS011;1243;54.298;10.172;2023-09-12T20:16:48;11.37;;;10.23;;
2462;SDS011;1243;54.298;10.172;2023-09-12T20:19:16;14.07;;;11.30;;
2462;SDS011;1243;54.298;10.172;2023-09-12T20:22:26;14.70;;;10.47;;
2462;SDS011;1243;54.298;10.172;2023-09-12T20:25:00;12.90;;;10.50;;
2462;SDS011;1243;54.298;10.172;2023-09-12T20:27:32;11.53;;;9.80;;
2462;SDS011;1243;54.298;10.172;2023-09-12T20:30:20;12.33;;;8.93;;
2462;SDS011;1243;54.298;10.172;2023-09-12T20:33:07;15.20;;;11.87;;
2462;SDS011;1243;54.298;10.172;2023-09-12T20:36:10;11.37;;;10.17;;
2462;SDS011;1243;54.298;10.172;2023-09-12T20:45:10;12.27;;;11.07;;
2462;SDS011;1243;54.298;10.172;2023-09-12T20:57:14;13.80;;;11.00;;
2462;SDS011;1243;54.298;10.172;2023-09-12T20:59:51;10.87;;;8.40;;
2462;SDS011;1243;54.298;10.172;2023-09-12T21:22:09;7.33;;;6.10;;
2462;SDS011;1243;54.298;10.172;2023-09-12T21:31:57;8.57;;;5.77;;
2462;SDS011;1243;54.298;10.172;2023-09-12T21:44:21;7.10;;;5.50;;
2462;SDS011;1243;54.298;10.172;2023-09-12T21:47:31;16.13;;;6.87;;
2462;SDS011;1243;54.298;10.172;2023-09-12T21:53:59;11.60;;;7.60;;
2462;SDS011;1243;54.298;10.172;2023-09-12T21:56:34;6.33;;;5.10;;
2462;SDS011;1243;54.298;10.172;2023-09-12T21:59:52;6.60;;;6.00;;
2462;SDS011;1243;54.298;10.172;2023-09-12T22:02:19;11.57;;;7.67;;
2462;SDS011;1243;54.298;10.172;2023-09-12T22:05:01;11.57;;;6.83;;
2462;SDS011;1243;54.298;10.172;2023-09-12T22:08:07;9.97;;;6.30;;
2462;SDS011;1243;54.298;10.172;2023-09-12T22:11:14;9.13;;;6.47;;
2462;SDS011;1243;54.298;10.172;2023-09-12T22:13:52;14.20;;;6.30;;
2462;SDS011;1243;54.298;10.172;2023-09-12T22:23:23;13.23;;;6.70;;
2462;SDS011;1243;54.298;10.172;2023-09-12T22:26:14;9.13;;;7.17;;
2462;SDS011;1243;54.298;10.172;2023-09-12T22:28:46;16.97;;;7.00;;
2462;SDS011;1243;54.298;10.172;2023-09-12T22:31:12;14.40;;;8.07;;
2462;SDS011;1243;54.298;10.172;2023-09-12T22:33:42;11.77;;;8.00;;